createdAt,value
2017-03-31T00:00:39.067Z,1008.66
2017-03-31T00:01:39.102Z,1008.7
2017-03-31T00:02:39.141Z,1008.69
2017-03-31T00:03:39.178Z,1008.69
2017-03-31T00:04:39.215Z,1008.65
2017-03-31T00:05:39.250Z,1008.64
2017-03-31T00:06:39.288Z,1008.65
2017-03-31T00:07:39.328Z,1008.61
2017-03-31T00:08:39.363Z,1008.61
2017-03-31T00:09:39.398Z,1008.58
2017-03-31T00:10:39.435Z,1008.59
2017-03-31T00:11:39.492Z,1008.59
2017-03-31T00:12:39.510Z,1008.6
2017-03-31T00:13:39.547Z,1008.61
2017-03-31T00:14:39.583Z,1008.58
2017-03-31T00:15:39.620Z,1008.53
2017-03-31T00:16:39.656Z,1008.61
2017-03-31T00:17:39.694Z,1008.58
2017-03-31T00:18:39.730Z,1008.57
2017-03-31T00:19:39.768Z,1008.59
2017-03-31T00:20:39.806Z,1008.6
2017-03-31T00:21:39.842Z,1008.53
2017-03-31T00:22:39.878Z,1008.54
2017-03-31T00:23:39.916Z,1008.55
2017-03-31T00:24:39.952Z,1008.49
2017-03-31T00:25:39.989Z,1008.5
2017-03-31T00:26:40.026Z,1008.51
2017-03-31T00:27:40.063Z,1008.46
2017-03-31T00:28:40.103Z,1008.51
2017-03-31T00:29:40.141Z,1008.46
2017-03-31T00:30:40.172Z,1008.47
2017-03-31T00:31:40.210Z,1008.45
2017-03-31T00:32:40.247Z,1008.44
2017-03-31T00:33:40.284Z,1008.43
2017-03-31T00:34:40.321Z,1008.42
2017-03-31T00:35:40.357Z,1008.42
2017-03-31T00:36:40.394Z,1008.44
2017-03-31T00:37:40.430Z,1008.41
2017-03-31T00:38:40.467Z,1008.37
2017-03-31T00:39:40.504Z,1008.33
2017-03-31T00:40:40.544Z,1008.37
2017-03-31T00:41:40.577Z,1008.35
2017-03-31T00:42:40.613Z,1008.38
2017-03-31T00:43:40.651Z,1008.32
2017-03-31T00:44:40.690Z,1008.34
2017-03-31T00:45:40.732Z,1008.3
2017-03-31T00:46:40.764Z,1008.27
2017-03-31T00:47:40.799Z,1008.29
2017-03-31T00:48:40.836Z,1008.28
2017-03-31T00:49:40.872Z,1008.27
2017-03-31T00:50:40.913Z,1008.25
2017-03-31T00:51:40.946Z,1008.21
2017-03-31T00:52:40.985Z,1008.24
2017-03-31T00:53:41.019Z,1008.2
2017-03-31T00:54:41.056Z,1008.2
2017-03-31T00:55:41.092Z,1008.15
2017-03-31T00:56:41.130Z,1008.17
2017-03-31T00:57:41.165Z,1008.19
2017-03-31T00:58:41.202Z,1008.16
2017-03-31T00:59:41.239Z,1008.18
2017-03-31T01:00:41.277Z,1008.14
2017-03-31T01:01:41.314Z,1008.11
2017-03-31T01:02:41.350Z,1008.13
2017-03-31T01:03:41.386Z,1008.11
2017-03-31T01:04:41.424Z,1008.06
2017-03-31T01:05:41.460Z,1008.06
2017-03-31T01:06:41.496Z,1008.04
2017-03-31T01:07:41.532Z,1008.04
2017-03-31T01:08:41.569Z,1008.01
2017-03-31T01:09:41.605Z,1008
2017-03-31T01:10:41.643Z,1008.03
2017-03-31T01:11:41.680Z,1008.01
2017-03-31T01:12:41.717Z,1008.01
2017-03-31T01:13:41.754Z,1007.99
2017-03-31T01:14:41.789Z,1007.96
2017-03-31T01:15:41.826Z,1008
2017-03-31T01:16:41.863Z,1007.97
2017-03-31T01:17:41.898Z,1007.96
2017-03-31T01:18:41.936Z,1007.97
2017-03-31T01:19:41.972Z,1007.93
2017-03-31T01:20:42.009Z,1007.92
2017-03-31T01:21:42.046Z,1007.93
2017-03-31T01:22:42.082Z,1007.9
2017-03-31T01:23:42.119Z,1007.87
2017-03-31T01:24:42.156Z,1007.87
2017-03-31T01:25:42.191Z,1007.86
2017-03-31T01:26:42.230Z,1007.84
2017-03-31T01:27:42.266Z,1007.85
2017-03-31T01:28:42.302Z,1007.84
2017-03-31T01:29:42.338Z,1007.83
2017-03-31T01:30:42.373Z,1007.83
2017-03-31T01:31:42.421Z,1007.78
2017-03-31T01:32:42.447Z,1007.77
2017-03-31T01:33:42.493Z,1007.76
2017-03-31T01:34:42.520Z,1007.76
2017-03-31T01:35:42.557Z,1007.74
2017-03-31T01:36:42.592Z,1007.75
2017-03-31T01:37:42.631Z,1007.72
2017-03-31T01:38:42.667Z,1007.7
2017-03-31T01:39:42.704Z,1007.72
2017-03-31T01:40:42.773Z,1007.69
2017-03-31T01:41:42.777Z,1007.74
2017-03-31T01:42:42.814Z,1007.71
2017-03-31T01:43:42.848Z,1007.7
2017-03-31T01:44:42.885Z,1007.69
2017-03-31T01:45:42.924Z,1007.68
2017-03-31T01:46:42.958Z,1007.72
2017-03-31T01:47:42.996Z,1007.67
2017-03-31T01:48:43.031Z,1007.61
2017-03-31T01:49:43.068Z,1007.66
2017-03-31T01:50:43.102Z,1007.66
2017-03-31T01:51:43.140Z,1007.64
2017-03-31T01:52:43.177Z,1007.65
2017-03-31T01:53:43.215Z,1007.65
2017-03-31T01:54:43.250Z,1007.67
2017-03-31T01:55:43.285Z,1007.62
2017-03-31T01:56:43.322Z,1007.62
2017-03-31T01:57:43.364Z,1007.61
2017-03-31T01:58:43.394Z,1007.63
2017-03-31T01:59:43.437Z,1007.59
2017-03-31T02:00:43.467Z,1007.56
2017-03-31T02:01:43.505Z,1007.65
2017-03-31T02:02:43.541Z,1007.6
2017-03-31T02:03:43.578Z,1007.63
2017-03-31T02:04:43.613Z,1007.61
2017-03-31T02:05:43.651Z,1007.58
2017-03-31T02:06:43.687Z,1007.61
2017-03-31T02:07:43.722Z,1007.59
2017-03-31T02:08:43.761Z,1007.59
2017-03-31T02:09:43.795Z,1007.6
2017-03-31T02:10:43.832Z,1007.56
2017-03-31T02:11:43.870Z,1007.58
2017-03-31T02:12:43.904Z,1007.6
2017-03-31T02:13:43.940Z,1007.54
2017-03-31T02:14:43.978Z,1007.49
2017-03-31T02:15:44.013Z,1007.49
2017-03-31T02:16:44.050Z,1007.45
2017-03-31T02:17:44.086Z,1007.44
2017-03-31T02:18:44.123Z,1007.46
2017-03-31T02:19:44.160Z,1007.42
2017-03-31T02:20:44.197Z,1007.44
2017-03-31T02:21:44.232Z,1007.44
2017-03-31T02:22:44.268Z,1007.39
2017-03-31T02:23:44.305Z,1007.35
2017-03-31T02:24:44.340Z,1007.39
2017-03-31T02:25:44.378Z,1007.37
2017-03-31T02:26:44.415Z,1007.34
2017-03-31T02:27:44.450Z,1007.31
2017-03-31T02:28:44.487Z,1007.28
2017-03-31T02:29:44.522Z,1007.3
2017-03-31T02:30:44.558Z,1007.32
2017-03-31T02:31:44.595Z,1007.29
2017-03-31T02:32:44.638Z,1007.26
2017-03-31T02:33:44.669Z,1007.27
2017-03-31T02:34:44.703Z,1007.24
2017-03-31T02:35:44.740Z,1007.23
2017-03-31T02:36:44.777Z,1007.21
2017-03-31T02:37:44.815Z,1007.19
2017-03-31T02:38:44.848Z,1007.18
2017-03-31T02:39:44.886Z,1007.19
2017-03-31T02:40:44.921Z,1007.17
2017-03-31T02:41:44.958Z,1007.15
2017-03-31T02:42:44.993Z,1007.16
2017-03-31T02:43:45.028Z,1007.17
2017-03-31T02:44:45.066Z,1007.1
2017-03-31T02:45:45.102Z,1007.12
2017-03-31T02:46:45.138Z,1007.1
2017-03-31T02:47:45.175Z,1007.14
2017-03-31T02:48:45.212Z,1007.11
2017-03-31T02:49:45.246Z,1007.07
2017-03-31T02:50:45.283Z,1007.07
2017-03-31T02:51:45.320Z,1007.03
2017-03-31T02:52:45.356Z,1007.01
2017-03-31T02:53:45.392Z,1007.03
2017-03-31T02:54:45.428Z,1006.99
2017-03-31T02:55:45.464Z,1006.97
2017-03-31T02:56:45.499Z,1006.98
2017-03-31T02:57:45.535Z,1006.98
2017-03-31T02:58:45.573Z,1007.01
2017-03-31T02:59:45.608Z,1007
2017-03-31T03:00:45.643Z,1007
2017-03-31T03:01:45.679Z,1006.99
2017-03-31T03:02:45.727Z,1006.97
2017-03-31T03:03:45.752Z,1007
2017-03-31T03:04:45.788Z,1007
2017-03-31T03:05:45.824Z,1006.96
2017-03-31T03:06:45.879Z,1006.94
2017-03-31T03:07:45.897Z,1006.95
2017-03-31T03:08:45.961Z,1006.94
2017-03-31T03:09:45.970Z,1006.92
2017-03-31T03:10:46.006Z,1006.91
2017-03-31T03:11:46.041Z,1006.92
2017-03-31T03:12:46.077Z,1006.91
2017-03-31T03:13:46.113Z,1006.87
2017-03-31T03:14:46.148Z,1006.92
2017-03-31T03:15:46.186Z,1006.88
2017-03-31T03:16:46.221Z,1006.89
2017-03-31T03:17:46.257Z,1006.87
2017-03-31T03:18:46.292Z,1006.86
2017-03-31T03:19:46.329Z,1006.91
2017-03-31T03:20:46.395Z,1006.87
2017-03-31T03:21:46.402Z,1006.85
2017-03-31T03:22:46.438Z,1006.82
2017-03-31T03:23:46.474Z,1006.8
2017-03-31T03:24:46.509Z,1006.81
2017-03-31T03:25:46.544Z,1006.8
2017-03-31T03:26:46.581Z,1006.81
2017-03-31T03:27:46.618Z,1006.8
2017-03-31T03:28:46.653Z,1006.75
2017-03-31T03:29:46.690Z,1006.73
2017-03-31T03:30:46.725Z,1006.7
2017-03-31T03:31:46.762Z,1006.73
2017-03-31T03:32:46.798Z,1006.75
2017-03-31T03:33:46.832Z,1006.8
2017-03-31T03:34:46.870Z,1006.75
2017-03-31T03:35:46.905Z,1006.76
2017-03-31T03:36:46.941Z,1006.78
2017-03-31T03:37:46.978Z,1006.74
2017-03-31T03:38:47.013Z,1006.7
2017-03-31T03:39:47.050Z,1006.74
2017-03-31T03:40:47.085Z,1006.7
2017-03-31T03:41:47.121Z,1006.72
2017-03-31T03:42:47.157Z,1006.7
2017-03-31T03:43:47.194Z,1006.68
2017-03-31T03:44:47.229Z,1006.67
2017-03-31T03:45:47.266Z,1006.67
2017-03-31T03:46:47.302Z,1006.63
2017-03-31T03:47:47.337Z,1006.66
2017-03-31T03:48:47.372Z,1006.58
2017-03-31T03:49:47.409Z,1006.62
2017-03-31T03:50:47.446Z,1006.56
2017-03-31T03:51:47.480Z,1006.57
2017-03-31T03:52:47.517Z,1006.56
2017-03-31T03:53:47.553Z,1006.56
2017-03-31T03:54:47.590Z,1006.52
2017-03-31T03:55:47.625Z,1006.49
2017-03-31T03:56:47.662Z,1006.49
2017-03-31T03:57:47.700Z,1006.48
2017-03-31T03:58:47.733Z,1006.49
2017-03-31T03:59:47.769Z,1006.48
2017-03-31T04:00:47.806Z,1006.49
2017-03-31T04:01:47.842Z,1006.49
2017-03-31T04:02:47.877Z,1006.48
2017-03-31T04:03:47.914Z,1006.49
2017-03-31T04:04:47.950Z,1006.46
2017-03-31T04:05:47.984Z,1006.51
2017-03-31T04:06:48.021Z,1006.5
2017-03-31T04:07:48.057Z,1006.46
2017-03-31T04:08:48.094Z,1006.46
2017-03-31T04:09:48.129Z,1006.48
2017-03-31T04:10:48.166Z,1006.51
2017-03-31T04:11:48.202Z,1006.5
2017-03-31T04:12:48.238Z,1006.5
2017-03-31T04:13:48.272Z,1006.47
2017-03-31T04:14:48.309Z,1006.52
2017-03-31T04:15:48.344Z,1006.48
2017-03-31T04:16:48.384Z,1006.44
2017-03-31T04:17:48.415Z,1006.45
2017-03-31T04:18:48.452Z,1006.48
2017-03-31T04:19:48.488Z,1006.46
2017-03-31T04:20:48.524Z,1006.48
2017-03-31T04:21:48.559Z,1006.45
2017-03-31T04:22:48.596Z,1006.47
2017-03-31T04:23:48.630Z,1006.43
2017-03-31T04:24:48.667Z,1006.43
2017-03-31T04:25:48.701Z,1006.39
2017-03-31T04:26:48.738Z,1006.36
2017-03-31T04:27:48.774Z,1006.39
2017-03-31T04:28:48.814Z,1006.37
2017-03-31T04:29:48.847Z,1006.35
2017-03-31T04:30:48.881Z,1006.36
2017-03-31T04:31:48.917Z,1006.36
2017-03-31T04:32:48.954Z,1006.34
2017-03-31T04:33:48.988Z,1006.31
2017-03-31T04:34:49.026Z,1006.3
2017-03-31T04:35:49.061Z,1006.34
2017-03-31T04:36:49.101Z,1006.28
2017-03-31T04:37:49.133Z,1006.31
2017-03-31T04:38:49.167Z,1006.25
2017-03-31T04:39:49.204Z,1006.28
2017-03-31T04:40:49.240Z,1006.28
2017-03-31T04:41:49.274Z,1006.26
2017-03-31T04:42:49.311Z,1006.23
2017-03-31T04:43:49.346Z,1006.28
2017-03-31T04:44:49.382Z,1006.19
2017-03-31T04:45:49.420Z,1006.24
2017-03-31T04:46:49.454Z,1006.25
2017-03-31T04:47:49.489Z,1006.25
2017-03-31T04:48:49.526Z,1006.26
2017-03-31T04:49:49.561Z,1006.27
2017-03-31T04:50:49.597Z,1006.27
2017-03-31T04:51:49.634Z,1006.26
2017-03-31T04:52:49.669Z,1006.23
2017-03-31T04:53:49.705Z,1006.25
2017-03-31T04:54:49.742Z,1006.26
2017-03-31T04:55:49.777Z,1006.25
2017-03-31T04:56:49.814Z,1006.27
2017-03-31T04:57:49.849Z,1006.23
2017-03-31T04:58:49.888Z,1006.26
2017-03-31T04:59:49.921Z,1006.26
2017-03-31T05:00:49.957Z,1006.25
2017-03-31T05:01:49.993Z,1006.28
2017-03-31T05:02:50.029Z,1006.26
2017-03-31T05:03:50.066Z,1006.26
2017-03-31T05:04:50.099Z,1006.28
2017-03-31T05:05:50.136Z,1006.31
2017-03-31T05:06:50.173Z,1006.31
2017-03-31T05:07:50.210Z,1006.35
2017-03-31T05:08:50.246Z,1006.31
2017-03-31T05:09:50.282Z,1006.34
2017-03-31T05:10:50.316Z,1006.33
2017-03-31T05:11:50.351Z,1006.37
2017-03-31T05:12:50.387Z,1006.38
2017-03-31T05:13:50.425Z,1006.39
2017-03-31T05:14:50.460Z,1006.36
2017-03-31T05:15:50.497Z,1006.4
2017-03-31T05:16:50.533Z,1006.39
2017-03-31T05:17:50.568Z,1006.39
2017-03-31T05:18:50.606Z,1006.38
2017-03-31T05:19:50.640Z,1006.35
2017-03-31T05:20:50.680Z,1006.41
2017-03-31T05:21:50.714Z,1006.35
2017-03-31T05:22:50.748Z,1006.37
2017-03-31T05:23:50.787Z,1006.37
2017-03-31T05:24:50.822Z,1006.38
2017-03-31T05:25:50.858Z,1006.32
2017-03-31T05:26:50.894Z,1006.34
2017-03-31T05:27:50.930Z,1006.3
2017-03-31T05:28:50.966Z,1006.32
2017-03-31T05:29:51.003Z,1006.3
2017-03-31T05:30:51.040Z,1006.26
2017-03-31T05:31:51.099Z,1006.28
2017-03-31T05:32:51.113Z,1006.25
2017-03-31T05:33:51.149Z,1006.25
2017-03-31T05:34:51.184Z,1006.27
2017-03-31T05:35:51.221Z,1006.27
2017-03-31T05:36:51.258Z,1006.31
2017-03-31T05:37:51.293Z,1006.29
2017-03-31T05:38:51.330Z,1006.3
2017-03-31T05:39:51.367Z,1006.29
2017-03-31T05:40:51.403Z,1006.28
2017-03-31T05:41:51.439Z,1006.29
2017-03-31T05:42:51.477Z,1006.32
2017-03-31T05:43:51.513Z,1006.28
2017-03-31T05:44:51.549Z,1006.28
2017-03-31T05:45:51.587Z,1006.28
2017-03-31T05:46:51.622Z,1006.25
2017-03-31T05:47:51.661Z,1006.31
2017-03-31T05:48:51.696Z,1006.24
2017-03-31T05:49:51.733Z,1006.28
2017-03-31T05:50:51.770Z,1006.31
2017-03-31T05:51:51.804Z,1006.29
2017-03-31T05:52:51.842Z,1006.28
2017-03-31T05:53:51.883Z,1006.33
2017-03-31T05:54:51.993Z,1006.27
2017-03-31T05:55:51.958Z,1006.3
2017-03-31T05:56:51.990Z,1006.25
2017-03-31T05:57:52.028Z,1006.29
2017-03-31T05:58:52.065Z,1006.27
2017-03-31T05:59:52.102Z,1006.23
2017-03-31T06:00:52.140Z,1006.27
2017-03-31T06:01:52.178Z,1006.3
2017-03-31T06:02:52.215Z,1006.27
2017-03-31T06:03:52.254Z,1006.29
2017-03-31T06:04:52.295Z,1006.24
2017-03-31T06:05:52.333Z,1006.25
2017-03-31T06:06:52.371Z,1006.26
2017-03-31T06:07:52.412Z,1006.28
2017-03-31T06:08:52.451Z,1006.25
2017-03-31T06:09:52.490Z,1006.3
2017-03-31T06:10:52.530Z,1006.28
2017-03-31T06:11:52.571Z,1006.26
2017-03-31T06:12:52.610Z,1006.3
2017-03-31T06:13:52.654Z,1006.3
2017-03-31T06:14:52.692Z,1006.3
2017-03-31T06:15:52.739Z,1006.25
2017-03-31T06:16:52.775Z,1006.23
2017-03-31T06:17:52.817Z,1006.28
2017-03-31T06:18:52.856Z,1006.22
2017-03-31T06:19:52.902Z,1006.18
2017-03-31T06:20:52.941Z,1006.18
2017-03-31T06:21:52.986Z,1006.21
2017-03-31T06:22:53.032Z,1006.21
2017-03-31T06:23:53.069Z,1006.22
2017-03-31T06:24:53.109Z,1006.2
2017-03-31T06:25:53.152Z,1006.21
2017-03-31T06:26:53.196Z,1006.17
2017-03-31T06:27:53.238Z,1006.16
2017-03-31T06:28:53.282Z,1006.16
2017-03-31T06:29:53.325Z,1006.15
2017-03-31T06:30:53.368Z,1006.16
2017-03-31T06:31:53.412Z,1006.18
2017-03-31T06:32:53.454Z,1006.18
2017-03-31T06:33:53.498Z,1006.2
2017-03-31T06:34:53.543Z,1006.11
2017-03-31T06:35:53.585Z,1006.18
2017-03-31T06:36:53.630Z,1006.14
2017-03-31T06:37:53.674Z,1006.07
2017-03-31T06:38:53.723Z,1006.09
2017-03-31T06:39:53.764Z,1006.11
2017-03-31T06:40:53.810Z,1006.09
2017-03-31T06:41:53.853Z,1006.09
2017-03-31T06:42:53.898Z,1006.06
2017-03-31T06:43:53.942Z,1006.07
2017-03-31T06:44:53.987Z,1006.13
2017-03-31T06:45:54.033Z,1006.09
2017-03-31T06:46:54.097Z,1006.07
2017-03-31T06:47:54.125Z,1006.06
2017-03-31T06:48:54.170Z,1006.04
2017-03-31T06:49:54.216Z,1006.04
2017-03-31T06:50:54.262Z,1006.02
2017-03-31T06:51:54.307Z,1006.03
2017-03-31T06:52:54.353Z,1006.02
2017-03-31T06:53:54.399Z,1006.11
2017-03-31T06:54:54.445Z,1006.07
2017-03-31T06:55:54.493Z,1006.06
2017-03-31T06:56:54.538Z,1006.03
2017-03-31T06:57:54.585Z,1006.05
2017-03-31T06:58:54.630Z,1006.06
2017-03-31T06:59:54.679Z,1006.05
2017-03-31T07:00:54.725Z,1006.05
2017-03-31T07:01:54.770Z,1006.02
2017-03-31T07:02:54.818Z,1006.05
2017-03-31T07:03:54.865Z,1006
2017-03-31T07:04:54.914Z,1006.04
2017-03-31T07:05:54.961Z,1006.03
2017-03-31T07:06:55.105Z,1006
2017-03-31T07:07:55.055Z,1006.01
2017-03-31T07:08:55.101Z,1006.02
2017-03-31T07:09:55.149Z,1005.95
2017-03-31T07:10:55.197Z,1006.01
2017-03-31T07:11:55.246Z,1005.97
2017-03-31T07:12:55.292Z,1005.94
2017-03-31T07:13:55.340Z,1005.94
2017-03-31T07:14:55.578Z,1005.92
2017-03-31T07:15:55.435Z,1005.95
2017-03-31T07:16:55.484Z,1005.94
2017-03-31T07:17:55.534Z,1005.91
2017-03-31T07:18:55.584Z,1005.94
2017-03-31T07:19:55.628Z,1005.94
2017-03-31T07:20:55.678Z,1005.97
2017-03-31T07:21:55.727Z,1005.94
2017-03-31T07:22:55.777Z,1005.98
2017-03-31T07:23:55.823Z,1005.97
2017-03-31T07:24:55.877Z,1005.97
2017-03-31T07:25:55.922Z,1005.98
2017-03-31T07:26:55.990Z,1005.87
2017-03-31T07:27:56.026Z,1005.9
2017-03-31T07:28:56.068Z,1005.89
2017-03-31T07:29:56.119Z,1005.89
2017-03-31T07:30:56.299Z,1005.93
2017-03-31T07:31:56.216Z,1005.91
2017-03-31T07:32:56.266Z,1005.91
2017-03-31T07:33:56.315Z,1005.89
2017-03-31T07:34:56.365Z,1005.91
2017-03-31T07:35:56.414Z,1005.89
2017-03-31T07:36:56.464Z,1005.89
2017-03-31T07:37:56.516Z,1005.88
2017-03-31T07:38:56.565Z,1005.85
2017-03-31T07:39:56.615Z,1005.88
2017-03-31T07:40:56.666Z,1005.86
2017-03-31T07:41:56.715Z,1005.84
2017-03-31T07:42:56.764Z,1005.88
2017-03-31T07:43:56.816Z,1005.89
2017-03-31T07:44:56.865Z,1005.89
2017-03-31T07:45:56.916Z,1005.88
2017-03-31T07:46:56.971Z,1005.88
2017-03-31T07:47:57.020Z,1005.88
2017-03-31T07:48:57.066Z,1005.89
2017-03-31T07:49:57.117Z,1005.91
2017-03-31T07:50:57.167Z,1005.88
2017-03-31T07:51:57.218Z,1005.88
2017-03-31T07:52:57.268Z,1005.9
2017-03-31T07:53:57.320Z,1005.89
2017-03-31T07:54:57.372Z,1005.88
2017-03-31T07:55:57.422Z,1005.82
2017-03-31T07:56:57.473Z,1005.79
2017-03-31T07:57:57.528Z,1005.78
2017-03-31T07:58:57.574Z,1005.78
2017-03-31T07:59:57.625Z,1005.72
2017-03-31T08:00:57.678Z,1005.72
2017-03-31T08:01:57.729Z,1005.72
2017-03-31T08:02:57.779Z,1005.7
2017-03-31T08:03:57.830Z,1005.72
2017-03-31T08:04:57.881Z,1005.69
2017-03-31T08:05:57.933Z,1005.66
2017-03-31T08:06:57.984Z,1005.68
2017-03-31T08:07:58.036Z,1005.66
2017-03-31T08:08:58.087Z,1005.64
2017-03-31T08:09:58.139Z,1005.69
2017-03-31T08:10:58.190Z,1005.6
2017-03-31T08:11:58.242Z,1005.69
2017-03-31T08:12:58.293Z,1005.6
2017-03-31T08:13:58.345Z,1005.65
2017-03-31T08:14:58.413Z,1005.62
2017-03-31T08:15:58.449Z,1005.67
2017-03-31T08:16:58.501Z,1005.65
2017-03-31T08:17:58.553Z,1005.66
2017-03-31T08:18:58.610Z,1005.68
2017-03-31T08:19:58.657Z,1005.68
2017-03-31T08:20:58.709Z,1005.59
2017-03-31T08:21:58.762Z,1005.63
2017-03-31T08:22:58.813Z,1005.64
2017-03-31T08:23:58.866Z,1005.64
2017-03-31T08:24:58.918Z,1005.66
2017-03-31T08:25:58.969Z,1005.59
2017-03-31T08:26:59.023Z,1005.59
2017-03-31T08:27:59.076Z,1005.56
2017-03-31T08:28:59.135Z,1005.58
2017-03-31T08:29:59.182Z,1005.6
2017-03-31T08:30:59.231Z,1005.59
2017-03-31T08:31:59.284Z,1005.64
2017-03-31T08:32:59.337Z,1005.61
2017-03-31T08:33:59.393Z,1005.64
2017-03-31T08:34:59.442Z,1005.6
2017-03-31T08:35:59.495Z,1005.64
2017-03-31T08:36:59.546Z,1005.69
2017-03-31T08:37:59.600Z,1005.66
2017-03-31T08:38:59.653Z,1005.66
2017-03-31T08:39:59.706Z,1005.64
2017-03-31T08:40:59.759Z,1005.66
2017-03-31T08:41:59.814Z,1005.64
2017-03-31T08:42:59.866Z,1005.68
2017-03-31T08:43:59.919Z,1005.67
2017-03-31T08:44:59.973Z,1005.61
2017-03-31T08:46:00.029Z,1005.62
2017-03-31T08:47:00.080Z,1005.62
2017-03-31T08:48:00.132Z,1005.63
2017-03-31T08:49:00.186Z,1005.65
2017-03-31T08:50:00.241Z,1005.63
2017-03-31T08:51:00.294Z,1005.62
2017-03-31T08:52:00.347Z,1005.59
2017-03-31T08:53:00.401Z,1005.62
2017-03-31T08:54:00.455Z,1005.6
2017-03-31T08:55:00.507Z,1005.62
2017-03-31T08:56:00.562Z,1005.59
2017-03-31T08:57:00.617Z,1005.6
2017-03-31T08:58:00.672Z,1005.57
2017-03-31T08:59:00.724Z,1005.55
2017-03-31T09:00:00.778Z,1005.55
2017-03-31T09:01:00.835Z,1005.54
2017-03-31T09:02:00.890Z,1005.47
2017-03-31T09:03:00.941Z,1005.56
2017-03-31T09:04:00.996Z,1005.52
2017-03-31T09:05:01.052Z,1005.46
2017-03-31T09:06:01.105Z,1005.49
2017-03-31T09:07:01.218Z,1005.47
2017-03-31T09:08:01.220Z,1005.44
2017-03-31T09:09:01.315Z,1005.46
2017-03-31T09:10:01.322Z,1005.43
2017-03-31T09:11:01.378Z,1005.42
2017-03-31T09:12:01.433Z,1005.39
2017-03-31T09:13:01.490Z,1005.35
2017-03-31T09:14:01.543Z,1005.35
2017-03-31T09:15:01.598Z,1005.36
2017-03-31T09:16:01.653Z,1005.34
2017-03-31T09:17:01.709Z,1005.26
2017-03-31T09:18:01.763Z,1005.26
2017-03-31T09:19:01.819Z,1005.27
2017-03-31T09:20:01.873Z,1005.27
2017-03-31T09:21:01.929Z,1005.29
2017-03-31T09:22:01.983Z,1005.31
2017-03-31T09:23:02.039Z,1005.28
2017-03-31T09:24:02.094Z,1005.24
2017-03-31T09:25:02.149Z,1005.27
2017-03-31T09:26:02.205Z,1005.19
2017-03-31T09:27:02.266Z,1005.21
2017-03-31T09:28:02.318Z,1005.2
2017-03-31T09:29:02.372Z,1005.17
2017-03-31T09:30:02.429Z,1005.19
2017-03-31T09:31:02.484Z,1005.16
2017-03-31T09:32:02.540Z,1005.11
2017-03-31T09:33:02.595Z,1005.15
2017-03-31T09:34:02.652Z,1005.09
2017-03-31T09:35:02.707Z,1005.03
2017-03-31T09:36:02.763Z,1005
2017-03-31T09:37:02.820Z,1004.97
2017-03-31T09:38:02.876Z,1004.99
2017-03-31T09:39:02.932Z,1004.95
2017-03-31T09:40:02.987Z,1004.94
2017-03-31T09:41:03.043Z,1004.97
2017-03-31T09:42:03.100Z,1004.95
2017-03-31T09:43:03.153Z,1004.96
2017-03-31T09:44:03.209Z,1004.92
2017-03-31T09:45:03.265Z,1004.9
2017-03-31T09:46:03.340Z,1004.92
2017-03-31T09:47:03.378Z,1004.89
2017-03-31T09:48:03.443Z,1004.85
2017-03-31T09:49:03.490Z,1004.83
2017-03-31T09:50:03.547Z,1004.85
2017-03-31T09:51:03.602Z,1004.81
2017-03-31T09:52:03.660Z,1004.79
2017-03-31T09:53:03.714Z,1004.77
2017-03-31T09:54:03.771Z,1004.79
2017-03-31T09:55:03.827Z,1004.74
2017-03-31T09:56:03.885Z,1004.78
2017-03-31T09:57:03.940Z,1004.8
2017-03-31T09:58:03.996Z,1004.78
2017-03-31T09:59:04.054Z,1004.76
2017-03-31T10:00:04.112Z,1004.77
2017-03-31T10:01:04.167Z,1004.77
2017-03-31T10:02:04.226Z,1004.69
2017-03-31T10:03:04.282Z,1004.65
2017-03-31T10:04:04.340Z,1004.66
2017-03-31T10:05:04.399Z,1004.66
2017-03-31T10:06:04.454Z,1004.62
2017-03-31T10:07:04.511Z,1004.63
2017-03-31T10:08:04.568Z,1004.56
2017-03-31T10:09:04.635Z,1004.56
2017-03-31T10:10:04.684Z,1004.5
2017-03-31T10:11:04.741Z,1004.53
2017-03-31T10:12:04.810Z,1004.5
2017-03-31T10:13:04.857Z,1004.51
2017-03-31T10:14:04.915Z,1004.47
2017-03-31T10:15:04.974Z,1004.41
2017-03-31T10:16:05.031Z,1004.43
2017-03-31T10:17:05.104Z,1004.4
2017-03-31T10:18:05.148Z,1004.4
2017-03-31T10:19:05.207Z,1004.4
2017-03-31T10:20:05.264Z,1004.36
2017-03-31T10:21:05.323Z,1004.34
2017-03-31T10:22:05.381Z,1004.35
2017-03-31T10:23:05.439Z,1004.3
2017-03-31T10:24:05.498Z,1004.32
2017-03-31T10:25:05.584Z,1004.3
2017-03-31T10:26:05.616Z,1004.29
2017-03-31T10:27:05.674Z,1004.26
2017-03-31T10:28:05.731Z,1004.2
2017-03-31T10:29:05.791Z,1004.15
2017-03-31T10:30:05.853Z,1004.1
2017-03-31T10:31:05.907Z,1004.16
2017-03-31T10:32:05.967Z,1004.17
2017-03-31T10:33:06.026Z,1004.13
2017-03-31T10:34:06.084Z,1004.11
2017-03-31T10:35:06.146Z,1004.1
2017-03-31T10:36:06.204Z,1004.15
2017-03-31T10:37:06.260Z,1004.02
2017-03-31T10:38:06.320Z,1004.02
2017-03-31T10:39:06.378Z,1004.01
2017-03-31T10:40:06.439Z,1004.01
2017-03-31T10:41:06.503Z,1004.01
2017-03-31T10:42:06.565Z,1003.99
2017-03-31T10:43:06.622Z,1004.09
2017-03-31T10:44:06.672Z,1003.95
2017-03-31T10:45:06.731Z,1004.07
2017-03-31T10:46:06.789Z,1003.94
2017-03-31T10:47:06.849Z,1003.85
2017-03-31T10:48:06.913Z,1003.84
2017-03-31T10:49:06.965Z,1003.86
2017-03-31T10:50:07.022Z,1003.88
2017-03-31T10:51:07.082Z,1003.77
2017-03-31T10:52:07.139Z,1003.84
2017-03-31T10:53:07.199Z,1003.82
2017-03-31T10:54:07.256Z,1003.81
2017-03-31T10:55:07.315Z,1003.8
2017-03-31T10:56:07.373Z,1003.77
2017-03-31T10:57:07.433Z,1003.78
2017-03-31T10:58:07.490Z,1003.75
2017-03-31T10:59:07.547Z,1003.87
2017-03-31T11:00:07.605Z,1004.04
2017-03-31T11:01:07.664Z,1003.78
2017-03-31T11:02:07.725Z,1003.69
2017-03-31T11:03:07.777Z,1003.85
2017-03-31T11:04:07.837Z,1003.8
2017-03-31T11:05:07.922Z,1003.75
2017-03-31T11:06:07.951Z,1003.65
2017-03-31T11:07:08.007Z,1003.61
2017-03-31T11:08:08.064Z,1003.58
2017-03-31T11:09:08.121Z,1003.64
2017-03-31T11:10:08.177Z,1003.68
2017-03-31T11:11:08.276Z,1003.64
2017-03-31T11:12:08.290Z,1003.62
2017-03-31T11:13:08.375Z,1003.71
2017-03-31T11:14:08.401Z,1003.55
2017-03-31T11:15:08.457Z,1003.45
2017-03-31T11:16:08.514Z,1003.54
2017-03-31T11:17:08.569Z,1003.57
2017-03-31T11:18:08.622Z,1003.62
2017-03-31T11:19:08.678Z,1003.51
2017-03-31T11:20:08.765Z,1003.52
2017-03-31T11:21:08.787Z,1003.49
2017-03-31T11:22:08.842Z,1003.56
2017-03-31T11:23:08.896Z,1003.45
2017-03-31T11:24:08.950Z,1003.42
2017-03-31T11:25:09.002Z,1003.47
2017-03-31T11:26:09.056Z,1003.44
2017-03-31T11:27:09.117Z,1003.44
2017-03-31T11:28:09.162Z,1003.4
2017-03-31T11:29:09.214Z,1003.43
2017-03-31T11:30:09.269Z,1003.52
2017-03-31T11:31:09.320Z,1003.39
2017-03-31T11:32:09.372Z,1003.32
2017-03-31T11:33:09.423Z,1003.32
2017-03-31T11:34:09.476Z,1003.28
2017-03-31T11:35:09.529Z,1003.25
2017-03-31T11:36:09.579Z,1003.22
2017-03-31T11:37:09.632Z,1003.2
2017-03-31T11:38:09.680Z,1003.17
2017-03-31T11:39:09.735Z,1003.18
2017-03-31T11:40:09.784Z,1003.1
2017-03-31T11:41:09.834Z,1003.07
2017-03-31T11:42:09.886Z,1003.11
2017-03-31T11:43:09.935Z,1003.09
2017-03-31T11:44:09.987Z,1002.98
2017-03-31T11:45:10.037Z,1003.05
2017-03-31T11:46:10.087Z,1003.08
2017-03-31T11:47:10.134Z,1003.05
2017-03-31T11:48:10.183Z,1003
2017-03-31T11:49:10.232Z,1003
2017-03-31T11:50:10.282Z,1002.95
2017-03-31T11:51:10.343Z,1002.93
2017-03-31T11:52:10.381Z,1002.99
2017-03-31T11:53:10.429Z,1002.93
2017-03-31T11:54:10.477Z,1002.97
2017-03-31T11:55:10.527Z,1002.9
2017-03-31T11:56:10.671Z,1002.94
2017-03-31T11:57:10.624Z,1002.89
2017-03-31T11:58:10.672Z,1002.85
2017-03-31T11:59:10.720Z,1002.82
2017-03-31T12:00:10.769Z,1002.71
2017-03-31T12:01:10.815Z,1002.78
2017-03-31T12:02:10.864Z,1002.75
2017-03-31T12:03:10.912Z,1002.72
2017-03-31T12:04:10.959Z,1002.71
2017-03-31T12:05:11.006Z,1002.67
2017-03-31T12:06:11.054Z,1002.62
2017-03-31T12:07:11.101Z,1002.63
2017-03-31T12:08:11.150Z,1002.66
2017-03-31T12:09:11.194Z,1002.56